• Join FlightAware (Why Join?)
  • Login
  • US Flag 
05:42AM EDT


 

Airport Tracker/Info


-or-


 

Live Flight TrackerFlight Track Log ✈ C-GONN ✈ 30-Apr-2013 ✈ CYKA - CYYC

Flight Track Log - Related Links

Times and Time Zones

All times are in EDT time to prevent confusion due to time zone crossing. See the C-GONN flight status page for this flight to view local times or setup timezone preferences in your user account.

Time Position Orientation Groundspeed Altitude Reporting Facility
EDT Latitude Longitude Course Direction KTS MPH feet Rate Location/Type
08:05PM 50.7000 -120.4833 98° East 110 127 2,900  Level Vancouver Center
08:06PM 50.6833 -120.4833 180° South 110 127 4,300 1,200 Climbing Vancouver Center
08:07PM 50.6500 -120.4333 136° Southeast 150 173 5,400 1,260 Climbing Vancouver Center
08:08PM 50.6500 -120.3500 90° East 150 173 6,900 1,380 Climbing Vancouver Center
08:09PM 50.6500 -120.3000 90° East 150 173 8,200 1,260 Climbing Vancouver Center
08:10PM 50.6829 -119.8447 98° East  Level FlightAware Approximate
08:10PM 50.6500 -120.2167 90° East 150 173 9,500  Level Vancouver Center
08:11PM 50.6500 -120.1667 90° East 150 173 10,600 1,140 Climbing Vancouver Center
08:12PM 50.6500 -120.0833 90° East 150 173 11,800 1,140 Climbing Vancouver Center
08:13PM 50.6667 -120.0000 72° East 160 184 12,900 960 Climbing Vancouver Center
08:14PM 50.6667 -119.9500 90° East 170 196 13,800 1,020 Climbing Vancouver Center
08:15PM 50.6500 -119.8500 105° East 190 219 15,000 900 Climbing Vancouver Center
08:16PM 50.6500 -119.7667 90° East 200 230 15,600 720 Climbing Vancouver Center
08:17PM 50.6500 -119.6667 90° East 210 242 16,500 900 Climbing Vancouver Center
08:18PM 50.6500 -119.5833 90° East 220 253 17,500 720 Climbing Vancouver Center
08:19PM 50.6500 -119.4833 90° East 220 253 18,000 780 Climbing Vancouver Center
08:20PM 50.6333 -119.3667 103° East 230 265 19,200 840 Climbing Vancouver Center
08:21PM 50.6333 -119.2667 90° East 230 265 19,900 720 Climbing Vancouver Center
08:22PM 50.6333 -119.1667 90° East 230 265 20,700 720 Climbing Vancouver Center
08:23PM 50.6333 -119.0667 90° East 230 265 21,400 720 Climbing Vancouver Center
08:24PM 50.6167 -118.9833 107° East 230 265 22,200 780 Climbing Vancouver Center
08:25PM 50.6167 -118.8833 90° East 230 265 23,000 360 Climbing Vancouver Center
08:26PM 50.6333 -118.7667 77° East 240 276 23,000  Level Vancouver Center
08:27PM 50.6333 -118.6667 90° East 250 288 23,000  Level Vancouver Center
08:28PM 50.6167 -118.5333 101° East 260 299 23,000  Level Vancouver Center
08:29PM 50.6167 -118.4333 90° East 270 311 23,000  Level Vancouver Center
08:30PM 50.6167 -118.3000 90° East 270 311 23,000  Level Vancouver Center
08:31PM 50.6000 -118.1833 103° East 270 311 23,000  Level Vancouver Center
08:32PM 50.6000 -118.0667 90° East 280 322 23,000  Level Vancouver Center
08:33PM 50.5833 -117.9333 101° East 280 322 23,000  Level Vancouver Center
08:34PM 50.5833 -117.8167 90° East 280 322 23,000  Level Vancouver Center
08:35PM 50.5833 -117.7000 90° East 280 322 23,000  Level Vancouver Center
08:36PM 50.5833 -117.5833 90° East 280 322 23,000  Level Vancouver Center
08:37PM 50.5833 -117.4500 90° East 280 322 23,000  Level Vancouver Center
08:38PM 50.5833 -117.3333 90° East 280 322 23,000  Level Vancouver Center
08:39PM 50.5667 -117.2167 103° East 270 311 23,000  Level Vancouver Center
08:40PM 50.5667 -117.0833 90° East 280 322 23,000  Level Vancouver Center
08:41PM 50.5500 -116.9833 105° East 270 311 23,000  Level Vancouver Center
08:42PM 50.5500 -116.8500 90° East 270 311 23,000  Level Vancouver Center
08:43PM 50.5500 -116.7500 90° East 270 311 23,000  Level Vancouver Center
08:44PM 50.5333 -116.6167 101° East 270 311 23,000  Level Vancouver Center
08:45PM 50.5333 -116.4833 90° East 270 311 23,000  Level Vancouver Center
08:46PM 50.5167 -116.3833 105° East 270 311 23,000  Level Vancouver Center
08:47PM 50.5167 -116.2833 90° East 270 311 23,000  Level Vancouver Center
08:48PM 50.5333 -116.1500 79° East 260 299 23,000  Level Vancouver Center
08:49PM 50.5667 -116.0667 58° Northeast 250 288 23,000  Level Vancouver Center
08:50PM 50.5833 -115.9500 77° East 250 288 23,000  Level Vancouver Center
08:51PM 50.6167 -115.8667 58° Northeast 250 288 23,000 -420 Level Vancouver Center
08:52PM 50.6500 -115.7500 66° East 250 288 22,200 -840 Descending Vancouver Center
08:53PM 50.6667 -115.6500 75° East 240 276 21,400 -900 Descending Vancouver Center
08:54PM 50.6833 -115.5667 72° East 250 288 20,400 -960 Descending Vancouver Center
08:55PM 50.7167 -115.4500 66° East 260 299 19,500 -900 Descending Vancouver Center
08:56PM 50.7333 -115.3500 75° East 250 288 18,700 -840 Descending Vancouver Center
08:57PM 50.7667 -115.2333 66° East 250 288 17,900 -900 Descending Vancouver Center
08:58PM 50.7833 -115.1500 72° East 250 288 17,000 -900 Descending Vancouver Center
08:59PM 50.8167 -115.0333 66° East 240 276 16,200 -900 Descending Vancouver Center
09:00PM 50.8333 -114.9333 75° East 250 288 15,200 -1,020 Descending Vancouver Center
09:02PM 50.8833 -114.8000 59° Northeast 260 299 13,200 -1,080 Descending Edmonton Center
09:03PM 50.9000 -114.7000 75° East 250 288 11,900 -1,380 Descending Edmonton Center
09:04PM 50.9167 -114.6000 75° East 250 288 10,500 -1,500 Descending Edmonton Center
09:05PM 50.9833 -114.5000 43° Northeast 230 265 8,900 -1,500 Descending Edmonton Center
09:06PM 51.0167 -114.4500 43° Northeast 220 253 7,500 -720 Descending Edmonton Center
09:07PM 51.0667 -114.4167 23° Northeast 220 253 7,500 -180 Level Edmonton Center
09:08PM 51.1167 -114.3333 46° Northeast 200 230 7,200 -540 Descending Edmonton Center
09:09PM 51.1500 -114.2667 51° Northeast 190 219 6,500 -900 Descending Edmonton Center
09:10PM 51.1333 -114.1833 108° East 180 207 5,400 -1,140 Descending Edmonton Center